Aérodrome :
LOGIN :

S'inscrire | Disclaimer

   EN    FR    IT 

 










Légende :    VFR   VFR Marginal   IFR   IFR Intensif   IFR Très Intensif
Visi : 
Plafond : 
>= 8 km
>= 3000ft
5 à 8 km
1000 à 3000 ft
1500m à 5 km
500 à 1000 ft
800 à 1500m
200 à 500 ft
< 800m
< 200 ft
Symboles :   Orages  Brouillard  Fortes neiges  Fortes précipitations  Vent > 20 kt
SIGMETs :   Divers  Orages  Givrage  Turbulence  Onde Orograph.  Cendres Volcan.






- Altitude de l'aérodrome : 290 ft
- Code IATA : ACI


EGJA - Alderney

DERNIER METAR :
  • 231750Z 27013KT 9999 BKN012 10/10 Q1024

METARs EXPIRÉS :
  • 231720Z 27012KT 9999 BKN012 10/10 Q1024
  • 231650Z 27013KT 6000 FEW000 BKN012 10/10 Q1023
  • 231620Z 28015KT 0400 -DZ FG BKN000 10/10 Q1023
  • 231550Z 27019KT 0300 R26/0375 -DZ FG BKN000 11/11 Q1023
  • 231520Z 26020KT 0300 R26/0375 -DZ FG BKN000 11/11 Q1023

TAF AMD TAF EGJA
Valide du 23 à 15h jusqu'au 24 à 00h UTC


231406Z 2315/2400 25020G30KT 0400 -DZ FG BKN000
PROB40
TEMPO 2315/2400 1500 BR BKN002
BECMG 2317/2319 26010KT
PROB30
TEMPO 2318/2322 8000 NSW BKN003



MET'MAP, la Météo Aéronautique d'un coup d'oeil ! - Copyright ORBIFLY Décembre 2007 - Disclaimer

ORBIFLY MET'MAP TEAM :

Programmation & Développement : Alexandra Zaïnal
Sur une idée originale de : Baudouin d'Aumeries
Assistance à la programmation : Marc-Olivier Méhu
Soutien technique & logistique : Manuel Goepfert

Contact : metmap@orbifly.com




SOURCES & CREDITS :

   NOAA